Spring Mount, PA (19478)

1:58 AM EDT on July 21, 2017 (GMT -0400)
Peanut's House,Horseshoe Rd Fox Heath | | Change Station

Elev 314 ft 40.24 °N, 75.47 °W | Updated 2 minutes ago

Partly Cloudy
Partly Cloudy
72.5 °F
Feels Like 73 °F
N
0.6
Wind Variable Wind from SSW
Gusts 2.5 mph

Today
High -- | Low -- °F
--% Chance of Precip.
Yesterday
High -- | Low -- °F
Precip. -- in
Pressure 29.91 in
Visibility 10.0 miles
Clouds Clear
Heat Index 73 °F
Dew Point 66 °F
Humidity 80%
Rainfall 0.00 in
Snow Depth Not available.
5:49 AM 8:26 PM
Waning Crescent, 7% visible
METAR KPTW 210554Z AUTO 00000KT 10SM CLR 22/21 A2993 RMK AO2 SLP128 T02220206 10300 20222 58005
Pressure 29.91 in
Visibility 10.0 miles
Clouds Clear
Heat Index 73 °F
Dew Point 66 °F
Humidity 80%
Rainfall 0.00 in
Snow Depth Not available.
5:49 AM 8:26 PM
Waning Crescent, 7% visible
METAR KPTW 210554Z AUTO 00000KT 10SM CLR 22/21 A2993 RMK AO2 SLP128 T02220206 10300 20222 58005

Get Severe Weather Alerts

Thanks for signing up!

Be on the lookout for a verification email in your inbox.

You'll start receiving the daily forecast at 6 AM.

×

10-Day Weather Forecast

Almanac

Astronomy

Jul. 21, 2017 Rise Set
Actual Time
Civil Twilight
Nautical Twilight
Astronomical Twilight
Moon
Length of Visible Light
Length of Day
Tomorrow will be .
, % of the Moon is Illuminated

Today's Extremes

State Highs State Lows

Community

WunderPhotos

Category 6

Welcome to Category 6. This is the collective home for Weather Underground's featured writeups by Dr. Jeff Masters (right), Bob Henson (left), Chris Burt, and other regular contributors.

Nearby

Air Quality

  Air Quality AQ Index Pollutant
Not available.

Snow Depth

Station Depth Elevation

Earthquake Activity

City Distance Mag. Time & Date
Minimum magnitude displayed is 2.5.

Coastal Water Temperatures

Place Temperature

Stations

Nearby Weather Stations

Station Location Temp. Windchill Dew Point Humidity Wind Precip. Elev Updated Type
                   

Watches & Warnings

There are currently no watches in effect.